createdAt,value
2016-10-02T00:00:33.553Z,998.74
2016-10-02T00:01:33.573Z,998.75
2016-10-02T00:02:33.592Z,998.76
2016-10-02T00:03:33.613Z,998.75
2016-10-02T00:04:33.638Z,998.76
2016-10-02T00:05:33.658Z,998.79
2016-10-02T00:06:33.677Z,998.78
2016-10-02T00:07:33.698Z,998.78
2016-10-02T00:08:33.722Z,998.76
2016-10-02T00:09:33.740Z,998.77
2016-10-02T00:10:33.766Z,998.75
2016-10-02T00:11:33.783Z,998.76
2016-10-02T00:12:33.805Z,998.81
2016-10-02T00:13:33.823Z,998.82
2016-10-02T00:14:33.845Z,998.86
2016-10-02T00:15:33.870Z,998.86
2016-10-02T00:16:33.892Z,998.86
2016-10-02T00:17:33.910Z,998.88
2016-10-02T00:18:33.930Z,998.91
2016-10-02T00:19:33.956Z,998.88
2016-10-02T00:20:40.249Z,998.86
2016-10-02T00:21:33.999Z,998.84
2016-10-02T00:22:34.023Z,998.89
2016-10-02T00:23:34.043Z,998.9
2016-10-02T00:24:34.065Z,998.85
2016-10-02T00:25:34.083Z,998.84
2016-10-02T00:26:34.108Z,998.86
2016-10-02T00:27:34.125Z,998.86
2016-10-02T00:28:34.150Z,998.85
2016-10-02T00:29:34.168Z,998.89
2016-10-02T00:30:34.192Z,998.85
2016-10-02T00:31:34.210Z,998.88
2016-10-02T00:32:34.234Z,998.85
2016-10-02T00:33:34.254Z,998.91
2016-10-02T00:34:34.277Z,998.87
2016-10-02T00:35:34.297Z,998.88
2016-10-02T00:36:34.318Z,998.9
2016-10-02T00:37:34.337Z,998.92
2016-10-02T00:38:34.357Z,998.92
2016-10-02T00:39:34.387Z,998.92
2016-10-02T00:40:34.401Z,998.92
2016-10-02T00:41:34.423Z,998.94
2016-10-02T00:42:34.447Z,998.95
2016-10-02T00:43:34.465Z,998.95
2016-10-02T00:44:34.486Z,998.95
2016-10-02T00:45:34.507Z,998.96
2016-10-02T00:46:34.526Z,998.98
2016-10-02T00:47:34.557Z,998.96
2016-10-02T00:48:34.570Z,998.96
2016-10-02T00:49:34.586Z,999.01
2016-10-02T00:50:34.615Z,998.99
2016-10-02T00:51:34.629Z,999.03
2016-10-02T00:52:34.652Z,999.03
2016-10-02T00:53:34.670Z,999.04
2016-10-02T00:54:34.692Z,999.01
2016-10-02T00:55:34.715Z,999.03
2016-10-02T00:56:34.732Z,999.02
2016-10-02T00:57:34.757Z,999
2016-10-02T00:58:34.779Z,998.99
2016-10-02T00:59:34.799Z,999.01
2016-10-02T01:00:34.818Z,999.01
2016-10-02T01:01:34.842Z,999
2016-10-02T01:02:34.861Z,999.06
2016-10-02T01:03:34.878Z,999.05
2016-10-02T01:04:34.902Z,999.06
2016-10-02T01:05:34.924Z,999.06
2016-10-02T01:06:34.947Z,999.06
2016-10-02T01:07:34.963Z,999.06
2016-10-02T01:08:34.989Z,999.07
2016-10-02T01:09:35.009Z,998.99
2016-10-02T01:10:35.032Z,998.99
2016-10-02T01:11:35.046Z,999.03
2016-10-02T01:12:35.067Z,999.02
2016-10-02T01:13:35.089Z,999.05
2016-10-02T01:14:35.109Z,999.02
2016-10-02T01:15:35.131Z,999
2016-10-02T01:16:35.153Z,998.98
2016-10-02T01:17:35.171Z,998.97
2016-10-02T01:18:35.194Z,998.97
2016-10-02T01:19:35.213Z,998.97
2016-10-02T01:20:35.233Z,998.98
2016-10-02T01:21:35.259Z,998.98
2016-10-02T01:22:35.276Z,998.97
2016-10-02T01:23:35.296Z,998.95
2016-10-02T01:24:35.319Z,998.96
2016-10-02T01:25:35.340Z,998.97
2016-10-02T01:26:35.360Z,999
2016-10-02T01:27:35.383Z,999.04
2016-10-02T01:28:35.403Z,999.08
2016-10-02T01:29:35.420Z,999.05
2016-10-02T01:30:35.441Z,999.07
2016-10-02T01:31:35.465Z,999.05
2016-10-02T01:32:35.486Z,999.04
2016-10-02T01:33:35.505Z,999.05
2016-10-02T01:34:35.528Z,999.05
2016-10-02T01:35:35.548Z,999.06
2016-10-02T01:36:35.568Z,999.11
2016-10-02T01:37:35.589Z,999.11
2016-10-02T01:38:35.607Z,999.12
2016-10-02T01:39:35.628Z,999.1
2016-10-02T01:40:35.650Z,999.12
2016-10-02T01:41:35.672Z,999.11
2016-10-02T01:42:35.693Z,999.11
2016-10-02T01:43:35.714Z,999.07
2016-10-02T01:44:35.736Z,999.11
2016-10-02T01:45:35.751Z,999.1
2016-10-02T01:46:35.771Z,999.07
2016-10-02T01:47:35.794Z,999.08
2016-10-02T01:48:35.815Z,999.04
2016-10-02T01:49:35.836Z,999.06
2016-10-02T01:50:35.856Z,999.08
2016-10-02T01:51:35.877Z,999.07
2016-10-02T01:52:35.897Z,999.08
2016-10-02T01:53:35.923Z,999.11
2016-10-02T01:54:35.939Z,999.09
2016-10-02T01:55:35.958Z,999.09
2016-10-02T01:56:35.982Z,999.12
2016-10-02T01:57:36.000Z,999.1
2016-10-02T01:58:36.022Z,999.13
2016-10-02T01:59:36.046Z,999.12
2016-10-02T02:00:36.069Z,999.11
2016-10-02T02:01:36.085Z,999.11
2016-10-02T02:02:36.103Z,999.09
2016-10-02T02:03:36.179Z,999.1
2016-10-02T02:04:36.143Z,999.11
2016-10-02T02:05:36.166Z,999.14
2016-10-02T02:06:36.187Z,999.12
2016-10-02T02:07:36.208Z,999.06
2016-10-02T02:08:36.227Z,999.08
2016-10-02T02:09:36.247Z,999.11
2016-10-02T02:10:36.268Z,999.1
2016-10-02T02:11:36.289Z,999.1
2016-10-02T02:12:36.311Z,999.13
2016-10-02T02:13:36.407Z,999.11
2016-10-02T02:14:36.371Z,999.11
2016-10-02T02:15:36.371Z,999.11
2016-10-02T02:16:36.398Z,999.07
2016-10-02T02:17:36.414Z,999.09
2016-10-02T02:18:36.434Z,999.07
2016-10-02T02:19:36.454Z,999.05
2016-10-02T02:20:36.476Z,999.06
2016-10-02T02:21:36.495Z,999.04
2016-10-02T02:22:36.517Z,999.09
2016-10-02T02:23:36.537Z,999.09
2016-10-02T02:24:36.555Z,999.06
2016-10-02T02:25:36.580Z,999.09
2016-10-02T02:26:36.602Z,999.1
2016-10-02T02:27:36.617Z,999.1
2016-10-02T02:28:36.641Z,999.1
2016-10-02T02:29:36.663Z,999.07
2016-10-02T02:30:36.692Z,999.07
2016-10-02T02:31:36.701Z,999.08
2016-10-02T02:32:36.723Z,999.09
2016-10-02T02:33:36.744Z,999.11
2016-10-02T02:34:36.765Z,999.16
2016-10-02T02:35:36.789Z,999.18
2016-10-02T02:36:36.803Z,999.22
2016-10-02T02:37:36.825Z,999.2
2016-10-02T02:38:36.844Z,999.22
2016-10-02T02:39:36.867Z,999.24
2016-10-02T02:40:36.885Z,999.24
2016-10-02T02:41:36.907Z,999.25
2016-10-02T02:42:36.928Z,999.21
2016-10-02T02:43:36.947Z,999.24
2016-10-02T02:44:36.975Z,999.22
2016-10-02T02:45:36.988Z,999.23
2016-10-02T02:46:37.010Z,999.21
2016-10-02T02:47:37.031Z,999.21
2016-10-02T02:48:37.052Z,999.19
2016-10-02T02:49:37.073Z,999.25
2016-10-02T02:50:37.092Z,999.24
2016-10-02T02:51:37.111Z,999.2
2016-10-02T02:52:37.132Z,999.21
2016-10-02T02:53:37.154Z,999.24
2016-10-02T02:54:37.171Z,999.23
2016-10-02T02:55:37.192Z,999.26
2016-10-02T02:56:37.223Z,999.26
2016-10-02T02:57:37.237Z,999.26
2016-10-02T02:58:37.253Z,999.25
2016-10-02T02:59:37.274Z,999.24
2016-10-02T03:00:37.293Z,999.17
2016-10-02T03:01:37.331Z,999.17
2016-10-02T03:02:37.343Z,999.16
2016-10-02T03:03:37.357Z,999.15
2016-10-02T03:04:37.498Z,999.15
2016-10-02T03:05:37.398Z,999.19
2016-10-02T03:06:37.417Z,999.19
2016-10-02T03:07:37.531Z,999.17
2016-10-02T03:08:37.669Z,999.21
2016-10-02T03:09:37.537Z,999.19
2016-10-02T03:10:37.546Z,999.19
2016-10-02T03:11:37.553Z,999.24
2016-10-02T03:12:37.560Z,999.22
2016-10-02T03:13:37.703Z,999.2
2016-10-02T03:14:37.701Z,999.23
2016-10-02T03:15:37.714Z,999.25
2016-10-02T03:16:37.719Z,999.22
2016-10-02T03:17:37.755Z,999.27
2016-10-02T03:18:37.905Z,999.29
2016-10-02T03:19:37.767Z,999.34
2016-10-02T03:20:37.783Z,999.3
2016-10-02T03:21:37.793Z,999.32
2016-10-02T03:22:37.830Z,999.35
2016-10-02T03:23:37.864Z,999.35
2016-10-02T03:24:37.838Z,999.34
2016-10-02T03:25:37.848Z,999.37
2016-10-02T03:26:37.853Z,999.42
2016-10-02T03:27:37.861Z,999.43
2016-10-02T03:28:37.970Z,999.41
2016-10-02T03:29:37.885Z,999.44
2016-10-02T03:30:37.925Z,999.39
2016-10-02T03:31:37.931Z,999.43
2016-10-02T03:32:37.950Z,999.44
2016-10-02T03:33:37.968Z,999.42
2016-10-02T03:34:37.986Z,999.43
2016-10-02T03:35:38.006Z,999.42
2016-10-02T03:36:38.029Z,999.41
2016-10-02T03:37:38.049Z,999.41
2016-10-02T03:38:38.069Z,999.39
2016-10-02T03:39:38.091Z,999.34
2016-10-02T03:40:38.108Z,999.36
2016-10-02T03:41:38.130Z,999.37
2016-10-02T03:42:38.149Z,999.39
2016-10-02T03:43:38.175Z,999.43
2016-10-02T03:44:38.192Z,999.46
2016-10-02T03:45:38.213Z,999.46
2016-10-02T03:46:38.230Z,999.47
2016-10-02T03:47:38.254Z,999.44
2016-10-02T03:48:38.269Z,999.43
2016-10-02T03:49:38.292Z,999.43
2016-10-02T03:50:38.310Z,999.43
2016-10-02T03:51:38.330Z,999.44
2016-10-02T03:52:38.353Z,999.45
2016-10-02T03:53:38.372Z,999.49
2016-10-02T03:54:38.392Z,999.41
2016-10-02T03:55:38.413Z,999.41
2016-10-02T03:56:38.438Z,999.38
2016-10-02T03:57:38.454Z,999.34
2016-10-02T03:58:38.474Z,999.33
2016-10-02T03:59:38.492Z,999.3
2016-10-02T04:00:38.517Z,999.26
2016-10-02T04:01:38.533Z,999.25
2016-10-02T04:02:38.551Z,999.23
2016-10-02T04:03:38.576Z,999.22
2016-10-02T04:04:38.592Z,999.25
2016-10-02T04:05:38.612Z,999.24
2016-10-02T04:06:38.633Z,999.25
2016-10-02T04:07:38.654Z,999.24
2016-10-02T04:08:38.675Z,999.24
2016-10-02T04:09:38.693Z,999.3
2016-10-02T04:10:38.716Z,999.26
2016-10-02T04:11:38.752Z,999.3
2016-10-02T04:12:38.757Z,999.27
2016-10-02T04:13:38.776Z,999.31
2016-10-02T04:14:38.797Z,999.28
2016-10-02T04:15:38.815Z,999.27
2016-10-02T04:16:38.838Z,999.28
2016-10-02T04:17:38.857Z,999.27
2016-10-02T04:18:38.875Z,999.27
2016-10-02T04:19:38.893Z,999.29
2016-10-02T04:20:38.914Z,999.3
2016-10-02T04:21:38.936Z,999.29
2016-10-02T04:22:38.954Z,999.36
2016-10-02T04:23:38.979Z,999.36
2016-10-02T04:24:38.999Z,999.36
2016-10-02T04:25:39.016Z,999.41
2016-10-02T04:26:39.036Z,999.42
2016-10-02T04:27:39.057Z,999.4
2016-10-02T04:28:39.074Z,999.42
2016-10-02T04:29:39.096Z,999.4
2016-10-02T04:30:39.114Z,999.43
2016-10-02T04:31:39.134Z,999.41
2016-10-02T04:32:39.153Z,999.43
2016-10-02T04:33:39.178Z,999.4
2016-10-02T04:34:39.205Z,999.43
2016-10-02T04:35:39.215Z,999.45
2016-10-02T04:36:39.237Z,999.43
2016-10-02T04:37:39.258Z,999.43
2016-10-02T04:38:39.277Z,999.45
2016-10-02T04:39:39.296Z,999.41
2016-10-02T04:40:39.316Z,999.39
2016-10-02T04:41:39.334Z,999.36
2016-10-02T04:42:39.388Z,999.41
2016-10-02T04:43:39.376Z,999.45
2016-10-02T04:44:39.398Z,999.47
2016-10-02T04:45:39.414Z,999.46
2016-10-02T04:46:39.432Z,999.46
2016-10-02T04:47:39.458Z,999.46
2016-10-02T04:48:39.475Z,999.47
2016-10-02T04:49:39.494Z,999.45
2016-10-02T04:50:39.513Z,999.44
2016-10-02T04:51:39.533Z,999.44
2016-10-02T04:52:39.559Z,999.48
2016-10-02T04:53:39.579Z,999.47
2016-10-02T04:54:39.597Z,999.48
2016-10-02T04:55:39.618Z,999.51
2016-10-02T04:56:39.632Z,999.48
2016-10-02T04:57:39.659Z,999.44
2016-10-02T04:58:39.679Z,999.53
2016-10-02T04:59:39.695Z,999.56
2016-10-02T05:00:39.716Z,999.54
2016-10-02T05:01:39.731Z,999.58
2016-10-02T05:02:39.751Z,999.58
2016-10-02T05:03:39.773Z,999.63
2016-10-02T05:04:39.799Z,999.6
2016-10-02T05:05:39.816Z,999.59
2016-10-02T05:06:39.837Z,999.58
2016-10-02T05:07:39.854Z,999.59
2016-10-02T05:08:39.871Z,999.59
2016-10-02T05:09:39.890Z,999.64
2016-10-02T05:10:39.910Z,999.62
2016-10-02T05:11:39.931Z,999.58
2016-10-02T05:12:39.949Z,999.61
2016-10-02T05:13:39.973Z,999.65
2016-10-02T05:14:39.997Z,999.61
2016-10-02T05:15:40.010Z,999.63
2016-10-02T05:16:40.030Z,999.65
2016-10-02T05:17:40.053Z,999.7
2016-10-02T05:18:40.070Z,999.68
2016-10-02T05:19:40.093Z,999.69
2016-10-02T05:20:40.113Z,999.76
2016-10-02T05:21:40.131Z,999.81
2016-10-02T05:22:40.149Z,999.87
2016-10-02T05:23:40.171Z,999.87
2016-10-02T05:24:40.191Z,999.9
2016-10-02T05:25:40.207Z,999.92
2016-10-02T05:26:40.226Z,999.93
2016-10-02T05:27:40.245Z,999.97
2016-10-02T05:28:40.267Z,999.93
2016-10-02T05:29:40.288Z,999.96
2016-10-02T05:30:40.304Z,999.9
2016-10-02T05:31:40.327Z,999.91
2016-10-02T05:32:40.344Z,999.89
2016-10-02T05:33:40.372Z,999.92
2016-10-02T05:34:40.388Z,999.95
2016-10-02T05:35:40.402Z,999.95
2016-10-02T05:36:40.425Z,999.96
2016-10-02T05:37:40.441Z,999.96
2016-10-02T05:38:40.461Z,999.96
2016-10-02T05:39:40.487Z,999.97
2016-10-02T05:40:40.503Z,999.97
2016-10-02T05:41:40.519Z,999.95
2016-10-02T05:42:40.539Z,999.92
2016-10-02T05:43:40.561Z,999.95
2016-10-02T05:44:40.583Z,999.91
2016-10-02T05:45:40.603Z,999.94
2016-10-02T05:46:40.619Z,999.91
2016-10-02T05:47:40.641Z,999.92
2016-10-02T05:48:40.658Z,999.93
2016-10-02T05:49:40.676Z,999.97
2016-10-02T05:50:40.698Z,999.94
2016-10-02T05:51:40.718Z,999.97
2016-10-02T05:52:40.735Z,999.99
2016-10-02T05:53:40.756Z,1000.05
2016-10-02T05:54:40.776Z,1000.03
2016-10-02T05:55:40.794Z,1000.06
2016-10-02T05:56:40.811Z,1000.08
2016-10-02T05:57:40.832Z,1000.05
2016-10-02T05:58:40.854Z,1000.08
2016-10-02T05:59:40.871Z,1000.09
2016-10-02T06:00:40.895Z,1000.12
2016-10-02T06:01:40.914Z,1000.15
2016-10-02T06:02:40.932Z,1000.16
2016-10-02T06:03:40.957Z,1000.19
2016-10-02T06:04:40.968Z,1000.19
2016-10-02T06:05:40.989Z,1000.2
2016-10-02T06:06:41.011Z,1000.2
2016-10-02T06:07:41.035Z,1000.24
2016-10-02T06:08:41.054Z,1000.24
2016-10-02T06:09:41.069Z,1000.24
2016-10-02T06:10:41.089Z,1000.19
2016-10-02T06:11:41.107Z,1000.17
2016-10-02T06:12:41.126Z,1000.2
2016-10-02T06:13:41.144Z,1000.13
2016-10-02T06:14:41.164Z,1000.19
2016-10-02T06:15:41.190Z,1000.2
2016-10-02T06:16:41.207Z,1000.18
2016-10-02T06:17:41.229Z,1000.19
2016-10-02T06:18:41.245Z,1000.18
2016-10-02T06:19:41.265Z,1000.22
2016-10-02T06:20:41.282Z,1000.2
2016-10-02T06:21:41.303Z,1000.16
2016-10-02T06:22:41.325Z,1000.13
2016-10-02T06:23:41.344Z,1000.12
2016-10-02T06:24:41.364Z,1000.14
2016-10-02T06:25:41.385Z,1000.15
2016-10-02T06:26:41.403Z,1000.21
2016-10-02T06:27:41.419Z,1000.2
2016-10-02T06:28:41.439Z,1000.21
2016-10-02T06:29:41.458Z,1000.17
2016-10-02T06:30:41.479Z,1000.2
2016-10-02T06:31:41.499Z,1000.21
2016-10-02T06:32:41.517Z,1000.17
2016-10-02T06:33:41.540Z,1000.13
2016-10-02T06:34:41.560Z,1000.11
2016-10-02T06:35:41.580Z,1000.02
2016-10-02T06:36:41.598Z,1000.04
2016-10-02T06:37:41.618Z,999.96
2016-10-02T06:38:41.637Z,999.99
2016-10-02T06:39:41.661Z,999.93
2016-10-02T06:40:41.679Z,999.96
2016-10-02T06:41:41.694Z,1000
2016-10-02T06:42:41.715Z,1000.04
2016-10-02T06:43:41.737Z,1000.06
2016-10-02T06:44:41.758Z,1000.02
2016-10-02T06:45:41.774Z,1000.01
2016-10-02T06:46:41.793Z,1000.08
2016-10-02T06:47:41.815Z,1000.11
2016-10-02T06:48:41.835Z,1000.08
2016-10-02T06:49:41.856Z,1000.05
2016-10-02T06:50:41.874Z,1000.05
2016-10-02T06:51:41.892Z,1000.01
2016-10-02T06:52:41.913Z,999.99
2016-10-02T06:53:41.933Z,1000.05
2016-10-02T06:54:41.953Z,1000.05
2016-10-02T06:55:41.975Z,1000.14
2016-10-02T06:56:41.998Z,1000.14
2016-10-02T06:57:42.012Z,1000.14
2016-10-02T06:58:42.035Z,1000.1
2016-10-02T06:59:42.051Z,1000.09
2016-10-02T07:00:42.075Z,1000.14
2016-10-02T07:01:42.091Z,1000.13
2016-10-02T07:02:42.114Z,1000.12
2016-10-02T07:03:42.134Z,1000.2
2016-10-02T07:04:42.152Z,1000.24
2016-10-02T07:05:42.175Z,1000.29
2016-10-02T07:06:42.194Z,1000.33
2016-10-02T07:07:42.211Z,1000.4
2016-10-02T07:08:42.232Z,1000.4
2016-10-02T07:09:42.250Z,1000.45
2016-10-02T07:10:42.276Z,1000.47
2016-10-02T07:11:42.294Z,1000.44
2016-10-02T07:12:42.313Z,1000.49
2016-10-02T07:13:42.334Z,1000.5
2016-10-02T07:14:42.355Z,1000.49
2016-10-02T07:15:42.374Z,1000.46
2016-10-02T07:16:42.393Z,1000.48
2016-10-02T07:17:42.414Z,1000.47
2016-10-02T07:18:42.436Z,1000.44
2016-10-02T07:19:42.454Z,1000.42
2016-10-02T07:20:42.471Z,1000.44
2016-10-02T07:21:42.497Z,1000.45
2016-10-02T07:22:42.515Z,1000.43
2016-10-02T07:23:42.533Z,1000.46
2016-10-02T07:24:42.552Z,1000.45
2016-10-02T07:25:42.579Z,1000.46
2016-10-02T07:26:42.605Z,1000.43
2016-10-02T07:27:42.615Z,1000.48
2016-10-02T07:28:42.634Z,1000.49
2016-10-02T07:29:42.654Z,1000.52
2016-10-02T07:30:42.674Z,1000.52
2016-10-02T07:31:42.700Z,1000.55
2016-10-02T07:32:42.717Z,1000.51
2016-10-02T07:33:42.739Z,1000.49
2016-10-02T07:34:42.758Z,1000.48
2016-10-02T07:35:42.781Z,1000.51
2016-10-02T07:36:42.802Z,1000.47
2016-10-02T07:37:42.820Z,1000.48
2016-10-02T07:38:42.838Z,1000.47
2016-10-02T07:39:42.867Z,1000.46
2016-10-02T07:40:42.882Z,1000.45
2016-10-02T07:41:42.900Z,1000.46
2016-10-02T07:42:42.916Z,1000.45
2016-10-02T07:43:42.940Z,1000.4
2016-10-02T07:44:42.961Z,1000.4
2016-10-02T07:45:42.981Z,1000.43
2016-10-02T07:46:43.001Z,1000.4
2016-10-02T07:47:43.022Z,1000.41
2016-10-02T07:48:43.043Z,1000.45
2016-10-02T07:49:43.063Z,1000.41
2016-10-02T07:50:43.086Z,1000.42
2016-10-02T07:51:43.101Z,1000.44
2016-10-02T07:52:43.121Z,1000.47
2016-10-02T07:53:43.155Z,1000.47
2016-10-02T07:54:43.194Z,1000.49
2016-10-02T07:55:43.195Z,1000.48
2016-10-02T07:56:43.202Z,1000.53
2016-10-02T07:57:43.229Z,1000.46
2016-10-02T07:58:43.247Z,1000.44
2016-10-02T07:59:43.269Z,1000.44
2016-10-02T08:00:43.287Z,1000.48
2016-10-02T08:01:43.307Z,1000.47
2016-10-02T08:02:43.335Z,1000.49
2016-10-02T08:03:43.368Z,1000.47
2016-10-02T08:04:43.372Z,1000.48
2016-10-02T08:05:43.389Z,1000.43
2016-10-02T08:06:43.416Z,1000.43
2016-10-02T08:07:43.441Z,1000.44
2016-10-02T08:08:43.451Z,1000.44
2016-10-02T08:09:43.472Z,1000.46
2016-10-02T08:10:43.498Z,1000.51
2016-10-02T08:11:43.523Z,1000.49
2016-10-02T08:12:43.556Z,1000.5
2016-10-02T08:13:43.559Z,1000.52
2016-10-02T08:14:43.579Z,1000.52
2016-10-02T08:15:43.604Z,1000.53
2016-10-02T08:16:43.616Z,1000.56
2016-10-02T08:17:43.640Z,1000.55
2016-10-02T08:18:43.661Z,1000.58
2016-10-02T08:19:43.682Z,1000.53
2016-10-02T08:20:43.700Z,1000.53
2016-10-02T08:21:43.722Z,1000.49
2016-10-02T08:22:43.741Z,1000.5
2016-10-02T08:23:43.764Z,1000.47
2016-10-02T08:24:43.794Z,1000.47
2016-10-02T08:25:43.807Z,1000.44
2016-10-02T08:26:43.827Z,1000.46
2016-10-02T08:27:43.850Z,1000.43
2016-10-02T08:28:43.873Z,1000.48
2016-10-02T08:29:43.892Z,1000.53
2016-10-02T08:30:43.913Z,1000.55
2016-10-02T08:31:43.932Z,1000.55
2016-10-02T08:32:43.952Z,1000.53
2016-10-02T08:33:43.977Z,1000.59
2016-10-02T08:34:44.009Z,1000.57
2016-10-02T08:35:44.018Z,1000.57
2016-10-02T08:36:44.040Z,1000.51
2016-10-02T08:37:44.058Z,1000.54
2016-10-02T08:38:44.082Z,1000.53
2016-10-02T08:39:44.104Z,1000.51
2016-10-02T08:40:44.124Z,1000.5
2016-10-02T08:41:44.143Z,1000.51
2016-10-02T08:42:44.168Z,1000.47
2016-10-02T08:43:44.187Z,1000.43
2016-10-02T08:44:44.206Z,1000.47
2016-10-02T08:45:44.226Z,1000.46
2016-10-02T08:46:44.253Z,1000.47
2016-10-02T08:47:44.273Z,1000.45
2016-10-02T08:48:44.294Z,1000.46
2016-10-02T08:49:44.313Z,1000.5
2016-10-02T08:50:44.334Z,1000.5
2016-10-02T08:51:44.354Z,1000.5
2016-10-02T08:52:44.376Z,1000.46
2016-10-02T08:53:44.513Z,1000.47
2016-10-02T08:54:44.421Z,1000.47
2016-10-02T08:55:44.449Z,1000.48
2016-10-02T08:56:44.463Z,1000.53
2016-10-02T08:57:44.485Z,1000.51
2016-10-02T08:58:44.504Z,1000.54
2016-10-02T08:59:44.525Z,1000.59
2016-10-02T09:00:44.550Z,1000.65
2016-10-02T09:01:44.572Z,1000.54
2016-10-02T09:02:44.590Z,1000.6
2016-10-02T09:03:44.613Z,1000.56
2016-10-02T09:04:44.636Z,1000.57
2016-10-02T09:05:44.657Z,1000.54
2016-10-02T09:06:44.679Z,1000.51
2016-10-02T09:07:44.700Z,1000.48
2016-10-02T09:08:44.720Z,1000.54
2016-10-02T09:09:44.743Z,1000.5
2016-10-02T09:10:44.764Z,1000.6
2016-10-02T09:11:44.787Z,1000.52
2016-10-02T09:12:44.805Z,1000.51
2016-10-02T09:13:44.829Z,1000.52
2016-10-02T09:14:44.848Z,1000.53
2016-10-02T09:15:44.873Z,1000.52
2016-10-02T09:16:44.892Z,1000.56
2016-10-02T09:17:44.919Z,1000.54
2016-10-02T09:18:44.933Z,1000.47
2016-10-02T09:19:44.955Z,1000.44
2016-10-02T09:20:44.979Z,1000.41
2016-10-02T09:21:44.999Z,1000.45
2016-10-02T09:22:45.022Z,1000.43
2016-10-02T09:23:45.045Z,1000.48
2016-10-02T09:24:45.066Z,1000.49
2016-10-02T09:25:45.087Z,1000.48
2016-10-02T09:26:45.109Z,1000.47
2016-10-02T09:27:45.135Z,1000.43
2016-10-02T09:28:45.157Z,1000.42
2016-10-02T09:29:45.178Z,1000.45
2016-10-02T09:30:45.197Z,1000.44
2016-10-02T09:31:45.219Z,1000.49
2016-10-02T09:32:45.240Z,1000.42
2016-10-02T09:33:45.259Z,1000.4
2016-10-02T09:34:45.283Z,1000.41
2016-10-02T09:35:45.303Z,1000.37
2016-10-02T09:36:45.326Z,1000.36
2016-10-02T09:37:45.350Z,1000.32
2016-10-02T09:38:45.372Z,1000.36
2016-10-02T09:39:45.398Z,1000.36
2016-10-02T09:40:45.412Z,1000.32
2016-10-02T09:41:45.435Z,1000.37
2016-10-02T09:42:45.459Z,1000.28
2016-10-02T09:43:45.481Z,1000.39
2016-10-02T09:44:45.502Z,1000.37
2016-10-02T09:45:45.527Z,1000.39
2016-10-02T09:46:45.545Z,1000.43
2016-10-02T09:47:45.568Z,1000.48
2016-10-02T09:48:45.590Z,1000.5
2016-10-02T09:49:45.614Z,1000.46
2016-10-02T09:50:45.640Z,1000.5
2016-10-02T09:51:45.663Z,1000.55
2016-10-02T09:52:45.680Z,1000.52
2016-10-02T09:53:45.701Z,1000.55
2016-10-02T09:54:45.724Z,1000.56
2016-10-02T09:55:45.744Z,1000.51
2016-10-02T09:56:45.770Z,1000.55
2016-10-02T09:57:45.788Z,1000.51
2016-10-02T09:58:45.815Z,1000.48
2016-10-02T09:59:45.836Z,1000.52
2016-10-02T10:00:45.855Z,1000.52
2016-10-02T10:01:45.886Z,1000.53
2016-10-02T10:02:45.902Z,1000.52
2016-10-02T10:03:45.923Z,1000.52
2016-10-02T10:04:45.943Z,1000.5
2016-10-02T10:05:45.970Z,1000.51
2016-10-02T10:06:45.989Z,1000.49
2016-10-02T10:07:46.016Z,1000.47
2016-10-02T10:08:46.036Z,1000.54
2016-10-02T10:09:46.058Z,1000.49
2016-10-02T10:10:46.079Z,1000.49
2016-10-02T10:11:46.104Z,1000.59
2016-10-02T10:12:46.123Z,1000.56
2016-10-02T10:13:46.152Z,1000.49
2016-10-02T10:14:46.174Z,1000.46
2016-10-02T10:15:46.196Z,1000.53
2016-10-02T10:16:46.220Z,1000.47
2016-10-02T10:17:46.238Z,1000.5
2016-10-02T10:18:46.261Z,1000.44
2016-10-02T10:19:46.291Z,1000.54
2016-10-02T10:20:46.308Z,1000.47
2016-10-02T10:21:46.332Z,1000.53
2016-10-02T10:22:46.352Z,1000.55
2016-10-02T10:23:46.374Z,1000.57
2016-10-02T10:24:46.400Z,1000.55
2016-10-02T10:25:46.422Z,1000.61
2016-10-02T10:26:46.459Z,1000.57
2016-10-02T10:27:46.475Z,1000.57
2016-10-02T10:28:46.492Z,1000.62
2016-10-02T10:29:46.516Z,1000.63
2016-10-02T10:30:46.544Z,1000.58
2016-10-02T10:31:46.562Z,1000.55
2016-10-02T10:32:46.583Z,1000.56
2016-10-02T10:33:46.613Z,1000.65
2016-10-02T10:34:46.631Z,1000.54
2016-10-02T10:35:46.653Z,1000.61
2016-10-02T10:36:46.679Z,1000.61
2016-10-02T10:37:46.702Z,1000.63
2016-10-02T10:38:46.725Z,1000.62
2016-10-02T10:39:46.746Z,1000.61
2016-10-02T10:40:46.776Z,1000.56
2016-10-02T10:41:46.796Z,1000.53
2016-10-02T10:42:46.820Z,1000.6
2016-10-02T10:43:46.848Z,1000.64
2016-10-02T10:44:46.867Z,1000.74
2016-10-02T10:45:46.897Z,1000.64
2016-10-02T10:46:46.916Z,1000.75
2016-10-02T10:47:46.939Z,1000.72
2016-10-02T10:48:46.961Z,1000.73
2016-10-02T10:49:46.985Z,1000.74
2016-10-02T10:50:47.010Z,1000.75
2016-10-02T10:51:47.033Z,1000.83
2016-10-02T10:52:47.054Z,1000.78
2016-10-02T10:53:47.081Z,1000.72
2016-10-02T10:54:47.103Z,1000.81
2016-10-02T10:55:47.135Z,1000.74
2016-10-02T10:56:47.155Z,1000.78
2016-10-02T10:57:47.176Z,1000.76
2016-10-02T10:58:47.200Z,1000.8
2016-10-02T10:59:47.228Z,1000.7
2016-10-02T11:00:47.250Z,1000.75
2016-10-02T11:01:47.275Z,1000.74
2016-10-02T11:02:47.296Z,1000.78
2016-10-02T11:03:47.325Z,1000.75
2016-10-02T11:04:47.348Z,1000.7
2016-10-02T11:05:47.370Z,1000.67
2016-10-02T11:06:47.395Z,1000.66
2016-10-02T11:07:47.417Z,1000.68
2016-10-02T11:08:47.445Z,1000.68
2016-10-02T11:09:47.477Z,1000.66
2016-10-02T11:10:47.494Z,1000.71
2016-10-02T11:11:47.516Z,1000.8
2016-10-02T11:12:47.539Z,1000.65
2016-10-02T11:13:47.567Z,1000.68
2016-10-02T11:14:47.590Z,1000.72
2016-10-02T11:15:47.623Z,1000.69
2016-10-02T11:16:47.640Z,1000.67
2016-10-02T11:17:47.662Z,1000.69
2016-10-02T11:18:47.685Z,1000.7
2016-10-02T11:19:47.710Z,1000.7
2016-10-02T11:20:47.734Z,1000.69
2016-10-02T11:21:47.767Z,1000.66
2016-10-02T11:22:47.783Z,1000.67
2016-10-02T11:23:47.810Z,1000.71
2016-10-02T11:24:47.835Z,1000.69
2016-10-02T11:25:47.867Z,1000.66
2016-10-02T11:26:47.883Z,1000.66
2016-10-02T11:27:47.906Z,1000.67
2016-10-02T11:28:47.932Z,1000.66
2016-10-02T11:29:47.958Z,1000.7
2016-10-02T11:30:47.982Z,1000.63
2016-10-02T11:31:48.007Z,1000.59
2016-10-02T11:32:48.029Z,1000.58
2016-10-02T11:33:48.054Z,1000.61
2016-10-02T11:34:48.081Z,1000.62
2016-10-02T11:35:48.104Z,1000.59
2016-10-02T11:36:48.130Z,1000.66
2016-10-02T11:37:48.154Z,1000.65
2016-10-02T11:38:48.178Z,1000.66
2016-10-02T11:39:48.203Z,1000.63
2016-10-02T11:40:48.226Z,1000.59
2016-10-02T11:41:48.250Z,1000.58
2016-10-02T11:42:48.278Z,1000.55
2016-10-02T11:43:48.311Z,1000.52
2016-10-02T11:44:48.327Z,1000.53
2016-10-02T11:45:48.348Z,1000.49
2016-10-02T11:46:48.376Z,1000.53
2016-10-02T11:47:48.398Z,1000.5
2016-10-02T11:48:48.423Z,1000.51
2016-10-02T11:49:48.450Z,1000.54
2016-10-02T11:50:48.473Z,1000.56
2016-10-02T11:51:48.500Z,1000.59
2016-10-02T11:52:48.525Z,1000.65
2016-10-02T11:53:48.547Z,1000.64
2016-10-02T11:54:48.573Z,1000.63
2016-10-02T11:55:48.606Z,1000.67
2016-10-02T11:56:48.624Z,1000.7
2016-10-02T11:57:48.643Z,1000.64
2016-10-02T11:58:48.674Z,1000.72
2016-10-02T11:59:48.696Z,1000.78
2016-10-02T12:00:48.718Z,1000.81
2016-10-02T12:01:48.745Z,1000.76
2016-10-02T12:02:48.770Z,1000.74
2016-10-02T12:03:48.795Z,1000.78
2016-10-02T12:04:48.821Z,1000.78
2016-10-02T12:05:48.842Z,1000.77
2016-10-02T12:06:48.870Z,1000.78
2016-10-02T12:07:48.891Z,1000.75
2016-10-02T12:08:48.916Z,1000.81
2016-10-02T12:09:48.943Z,1000.85
2016-10-02T12:10:48.966Z,1000.84
2016-10-02T12:11:48.993Z,1000.85
2016-10-02T12:12:49.020Z,1000.91
2016-10-02T12:13:49.042Z,1000.96
2016-10-02T12:14:49.066Z,1000.94
2016-10-02T12:15:49.089Z,1000.94
2016-10-02T12:16:49.113Z,1000.92
2016-10-02T12:17:49.139Z,1000.87
2016-10-02T12:18:49.164Z,1000.83
2016-10-02T12:19:49.187Z,1000.79